sensor_id;sensor_type;location;lat;lon;timestamp;pressure;altitude;pressure_sealevel;temperature
63588;BMP280;49966;46.896;18.004;2023-06-24T07:35:44;100841.63;;;22.28
63588;BMP280;49966;46.896;18.004;2023-06-24T07:38:20;100822.91;;;21.94
63588;BMP280;49966;46.896;18.004;2023-06-24T07:40:50;100812.22;;;21.87
63588;BMP280;49966;46.896;18.004;2023-06-24T07:43:23;100840.22;;;22.20
63588;BMP280;49966;46.896;18.004;2023-06-24T07:46:19;100835.59;;;22.21
63588;BMP280;49966;46.896;18.004;2023-06-24T07:49:37;100833.84;;;22.30
63588;BMP280;49966;46.896;18.004;2023-06-24T07:52:08;100827.53;;;22.17
63588;BMP280;49966;46.896;18.004;2023-06-24T07:54:40;100834.47;;;21.95
63588;BMP280;49966;46.896;18.004;2023-06-24T07:57:18;100840.31;;;21.93
63588;BMP280;49966;46.896;18.004;2023-06-24T07:59:47;100849.13;;;22.21
63588;BMP280;49966;46.896;18.004;2023-06-24T08:02:17;100843.50;;;22.31
63588;BMP280;49966;46.896;18.004;2023-06-24T08:04:48;100830.19;;;22.40
63588;BMP280;49966;46.896;18.004;2023-06-24T08:07:18;100833.31;;;22.39
63588;BMP280;49966;46.896;18.004;2023-06-24T08:09:47;100834.19;;;22.12
63588;BMP280;49966;46.896;18.004;2023-06-24T08:12:15;100844.25;;;22.32
63588;BMP280;49966;46.896;18.004;2023-06-24T08:14:44;100838.78;;;22.15
63588;BMP280;49966;46.896;18.004;2023-06-24T08:17:12;100833.38;;;22.15
63588;BMP280;49966;46.896;18.004;2023-06-24T08:19:41;100845.00;;;22.12
63588;BMP280;49966;46.896;18.004;2023-06-24T08:25:43;100842.84;;;22.04
63588;BMP280;49966;46.896;18.004;2023-06-24T08:28:13;100855.03;;;22.12
63588;BMP280;49966;46.896;18.004;2023-06-24T08:31:03;100847.47;;;22.03
63588;BMP280;49966;46.896;18.004;2023-06-24T08:34:24;100852.75;;;22.10
63588;BMP280;49966;46.896;18.004;2023-06-24T08:37:20;100853.72;;;22.20
63588;BMP280;49966;46.896;18.004;2023-06-24T08:39:57;100848.78;;;22.15
63588;BMP280;49966;46.896;18.004;2023-06-24T08:43:16;100848.97;;;22.28
63588;BMP280;49966;46.896;18.004;2023-06-24T08:45:45;100847.00;;;22.48
63588;BMP280;49966;46.896;18.004;2023-06-24T08:48:13;100849.06;;;22.44
63588;BMP280;49966;46.896;18.004;2023-06-24T08:51:13;100846.22;;;22.51
63588;BMP280;49966;46.896;18.004;2023-06-24T08:53:43;100844.00;;;22.46
63588;BMP280;49966;46.896;18.004;2023-06-24T08:56:13;100834.91;;;22.56
63588;BMP280;49966;46.896;18.004;2023-06-24T08:58:43;100852.31;;;22.55
63588;BMP280;49966;46.896;18.004;2023-06-24T09:01:12;100844.97;;;22.56
63588;BMP280;49966;46.896;18.004;2023-06-24T09:03:44;100856.47;;;22.60
63588;BMP280;49966;46.896;18.004;2023-06-24T09:06:20;100857.72;;;22.75
63588;BMP280;49966;46.896;18.004;2023-06-24T09:09:20;100849.47;;;22.82
63588;BMP280;49966;46.896;18.004;2023-06-24T09:11:52;100853.66;;;22.67
63588;BMP280;49966;46.896;18.004;2023-06-24T09:14:31;100880.25;;;22.68
63588;BMP280;49966;46.896;18.004;2023-06-24T09:20:25;100872.59;;;23.03
63588;BMP280;49966;46.896;18.004;2023-06-24T09:23:01;100857.41;;;23.74
63588;BMP280;49966;46.896;18.004;2023-06-24T09:25:56;100872.63;;;23.84
63588;BMP280;49966;46.896;18.004;2023-06-24T09:28:26;100875.09;;;24.24
63588;BMP280;49966;46.896;18.004;2023-06-24T09:31:09;100857.25;;;23.98
63588;BMP280;49966;46.896;18.004;2023-06-24T09:33:46;100870.91;;;24.07
63588;BMP280;49966;46.896;18.004;2023-06-24T09:36:19;100872.69;;;23.52
63588;BMP280;49966;46.896;18.004;2023-06-24T09:38:55;100863.13;;;23.80
63588;BMP280;49966;46.896;18.004;2023-06-24T09:41:40;100871.22;;;23.47
63588;BMP280;49966;46.896;18.004;2023-06-24T09:44:19;100868.50;;;23.31
63588;BMP280;49966;46.896;18.004;2023-06-24T09:46:55;100854.91;;;22.98
63588;BMP280;49966;46.896;18.004;2023-06-24T09:49:24;100856.31;;;22.87
63588;BMP280;49966;46.896;18.004;2023-06-24T09:51:55;100863.56;;;23.10
63588;BMP280;49966;46.896;18.004;2023-06-24T09:54:26;100860.97;;;23.22
63588;BMP280;49966;46.896;18.004;2023-06-24T09:57:02;100863.75;;;23.19
63588;BMP280;49966;46.896;18.004;2023-06-24T09:59:31;100845.50;;;23.39
63588;BMP280;49966;46.896;18.004;2023-06-24T10:02:03;100839.91;;;23.30
63588;BMP280;49966;46.896;18.004;2023-06-24T10:04:34;100848.75;;;23.50
63588;BMP280;49966;46.896;18.004;2023-06-24T10:07:03;100850.81;;;23.59
63588;BMP280;49966;46.896;18.004;2023-06-24T10:09:31;100842.13;;;23.68
63588;BMP280;49966;46.896;18.004;2023-06-24T10:11:59;100847.69;;;23.44
63588;BMP280;49966;46.896;18.004;2023-06-24T10:14:30;100858.72;;;23.53
63588;BMP280;49966;46.896;18.004;2023-06-24T10:17:04;100855.13;;;23.89
63588;BMP280;49966;46.896;18.004;2023-06-24T10:19:37;100864.50;;;23.84
63588;BMP280;49966;46.896;18.004;2023-06-24T10:22:08;100852.50;;;24.02
63588;BMP280;49966;46.896;18.004;2023-06-24T10:24:38;100844.97;;;23.77
63588;BMP280;49966;46.896;18.004;2023-06-24T10:27:13;100861.34;;;24.02
63588;BMP280;49966;46.896;18.004;2023-06-24T10:29:45;100857.00;;;24.21
63588;BMP280;49966;46.896;18.004;2023-06-24T10:32:16;100852.56;;;24.27
63588;BMP280;49966;46.896;18.004;2023-06-24T10:34:46;100848.78;;;24.79
63588;BMP280;49966;46.896;18.004;2023-06-24T10:37:19;100844.88;;;25.06
63588;BMP280;49966;46.896;18.004;2023-06-24T10:39:50;100863.13;;;24.92
63588;BMP280;49966;46.896;18.004;2023-06-24T10:42:40;100870.59;;;25.52
63588;BMP280;49966;46.896;18.004;2023-06-24T10:45:20;100867.91;;;25.74
63588;BMP280;49966;46.896;18.004;2023-06-24T10:47:50;100854.66;;;25.98
63588;BMP280;49966;46.896;18.004;2023-06-24T10:50:23;100865.78;;;26.34
63588;BMP280;49966;46.896;18.004;2023-06-24T10:52:53;100855.91;;;25.62
63588;BMP280;49966;46.896;18.004;2023-06-24T10:55:26;100845.00;;;24.89
63588;BMP280;49966;46.896;18.004;2023-06-24T10:58:07;100841.97;;;24.33
63588;BMP280;49966;46.896;18.004;2023-06-24T11:00:38;100824.56;;;23.89
63588;BMP280;49966;46.896;18.004;2023-06-24T11:03:13;100839.84;;;24.11
63588;BMP280;49966;46.896;18.004;2023-06-24T11:05:43;100841.41;;;24.38
63588;BMP280;49966;46.896;18.004;2023-06-24T11:08:12;100846.16;;;24.76
63588;BMP280;49966;46.896;18.004;2023-06-24T11:10:44;100835.84;;;24.70
63588;BMP280;49966;46.896;18.004;2023-06-24T11:13:13;100835.97;;;24.25
63588;BMP280;49966;46.896;18.004;2023-06-24T11:15:41;100841.72;;;24.27
63588;BMP280;49966;46.896;18.004;2023-06-24T11:18:13;100834.06;;;23.80
63588;BMP280;49966;46.896;18.004;2023-06-24T11:20:41;100830.53;;;23.67
63588;BMP280;49966;46.896;18.004;2023-06-24T11:23:10;100830.34;;;23.74
63588;BMP280;49966;46.896;18.004;2023-06-24T11:25:40;100833.44;;;24.05
63588;BMP280;49966;46.896;18.004;2023-06-24T11:28:16;100825.03;;;24.00
63588;BMP280;49966;46.896;18.004;2023-06-24T11:30:49;100816.53;;;24.14
63588;BMP280;49966;46.896;18.004;2023-06-24T11:33:27;100810.16;;;23.92
63588;BMP280;49966;46.896;18.004;2023-06-24T11:35:56;100822.81;;;23.66
63588;BMP280;49966;46.896;18.004;2023-06-24T11:38:24;100796.38;;;23.57
63588;BMP280;49966;46.896;18.004;2023-06-24T11:40:59;100801.44;;;23.39
63588;BMP280;49966;46.896;18.004;2023-06-24T11:43:27;100802.03;;;23.30
63588;BMP280;49966;46.896;18.004;2023-06-24T11:45:59;100781.72;;;23.22
63588;BMP280;49966;46.896;18.004;2023-06-24T11:48:29;100793.75;;;23.37
63588;BMP280;49966;46.896;18.004;2023-06-24T11:50:58;100816.66;;;23.65
63588;BMP280;49966;46.896;18.004;2023-06-24T11:53:30;100810.13;;;23.63
63588;BMP280;49966;46.896;18.004;2023-06-24T11:55:59;100807.44;;;23.30
63588;BMP280;49966;46.896;18.004;2023-06-24T11:58:27;100803.47;;;23.35
63588;BMP280;49966;46.896;18.004;2023-06-24T12:00:58;100813.25;;;24.06
63588;BMP280;49966;46.896;18.004;2023-06-24T12:03:29;100793.66;;;24.15
63588;BMP280;49966;46.896;18.004;2023-06-24T12:05:59;100798.19;;;24.60
63588;BMP280;49966;46.896;18.004;2023-06-24T12:08:45;100813.00;;;24.97
63588;BMP280;49966;46.896;18.004;2023-06-24T12:11:36;100812.22;;;25.22
63588;BMP280;49966;46.896;18.004;2023-06-24T12:14:07;100787.44;;;25.20
63588;BMP280;49966;46.896;18.004;2023-06-24T12:17:04;100794.69;;;25.23
63588;BMP280;49966;46.896;18.004;2023-06-24T12:19:54;100798.22;;;24.98
63588;BMP280;49966;46.896;18.004;2023-06-24T12:22:30;100791.81;;;24.41
63588;BMP280;49966;46.896;18.004;2023-06-24T12:25:02;100796.31;;;24.02
63588;BMP280;49966;46.896;18.004;2023-06-24T12:27:39;100800.03;;;24.37
63588;BMP280;49966;46.896;18.004;2023-06-24T12:30:08;100809.50;;;24.58
63588;BMP280;49966;46.896;18.004;2023-06-24T12:32:44;100792.00;;;24.34
63588;BMP280;49966;46.896;18.004;2023-06-24T12:35:15;100804.63;;;24.11
63588;BMP280;49966;46.896;18.004;2023-06-24T12:37:43;100803.44;;;24.25
63588;BMP280;49966;46.896;18.004;2023-06-24T12:40:12;100800.56;;;24.45
63588;BMP280;49966;46.896;18.004;2023-06-24T12:46:29;100797.50;;;24.30
63588;BMP280;49966;46.896;18.004;2023-06-24T12:49:39;100791.47;;;24.10
63588;BMP280;49966;46.896;18.004;2023-06-24T12:52:27;100791.81;;;24.12
63588;BMP280;49966;46.896;18.004;2023-06-24T12:55:15;100790.44;;;23.91
63588;BMP280;49966;46.896;18.004;2023-06-24T12:58:12;100790.97;;;24.28
63588;BMP280;49966;46.896;18.004;2023-06-24T13:00:43;100788.25;;;24.15
63588;BMP280;49966;46.896;18.004;2023-06-24T13:03:16;100790.59;;;24.00
63588;BMP280;49966;46.896;18.004;2023-06-24T13:10:25;100798.31;;;24.15
63588;BMP280;49966;46.896;18.004;2023-06-24T13:15:46;100793.34;;;24.13
63588;BMP280;49966;46.896;18.004;2023-06-24T13:18:17;100799.75;;;24.19
63588;BMP280;49966;46.896;18.004;2023-06-24T13:20:50;100804.53;;;24.28
63588;BMP280;49966;46.896;18.004;2023-06-24T13:23:36;100817.63;;;24.17
63588;BMP280;49966;46.896;18.004;2023-06-24T13:26:06;100800.25;;;24.43
63588;BMP280;49966;46.896;18.004;2023-06-24T13:28:37;100798.81;;;24.38
63588;BMP280;49966;46.896;18.004;2023-06-24T13:31:06;100800.63;;;24.16
63588;BMP280;49966;46.896;18.004;2023-06-24T13:33:35;100795.84;;;23.91
63588;BMP280;49966;46.896;18.004;2023-06-24T13:36:04;100788.28;;;23.99
63588;BMP280;49966;46.896;18.004;2023-06-24T13:38:33;100789.88;;;24.25
63588;BMP280;49966;46.896;18.004;2023-06-24T13:41:01;100778.97;;;24.00
63588;BMP280;49966;46.896;18.004;2023-06-24T13:43:33;100781.56;;;23.91
63588;BMP280;49966;46.896;18.004;2023-06-24T13:46:01;100779.94;;;23.93
63588;BMP280;49966;46.896;18.004;2023-06-24T13:48:30;100783.59;;;23.87
63588;BMP280;49966;46.896;18.004;2023-06-24T13:50:58;100784.50;;;23.96
63588;BMP280;49966;46.896;18.004;2023-06-24T13:53:29;100797.06;;;23.90
63588;BMP280;49966;46.896;18.004;2023-06-24T13:55:57;100790.31;;;23.95
63588;BMP280;49966;46.896;18.004;2023-06-24T13:58:25;100783.16;;;23.88
63588;BMP280;49966;46.896;18.004;2023-06-24T14:00:55;100788.66;;;23.84
63588;BMP280;49966;46.896;18.004;2023-06-24T14:03:24;100774.03;;;23.82
63588;BMP280;49966;46.896;18.004;2023-06-24T14:05:52;100779.66;;;23.75
63588;BMP280;49966;46.896;18.004;2023-06-24T14:08:21;100794.16;;;23.52
63588;BMP280;49966;46.896;18.004;2023-06-24T14:10:57;100780.63;;;23.36
63588;BMP280;49966;46.896;18.004;2023-06-24T14:13:35;100775.41;;;23.12
63588;BMP280;49966;46.896;18.004;2023-06-24T14:16:05;100789.59;;;23.16
63588;BMP280;49966;46.896;18.004;2023-06-24T14:18:33;100784.69;;;23.27
63588;BMP280;49966;46.896;18.004;2023-06-24T14:21:03;100776.31;;;23.22
63588;BMP280;49966;46.896;18.004;2023-06-24T14:23:32;100763.81;;;23.12
63588;BMP280;49966;46.896;18.004;2023-06-24T14:26:01;100755.84;;;23.05
63588;BMP280;49966;46.896;18.004;2023-06-24T14:28:29;100761.00;;;22.99
63588;BMP280;49966;46.896;18.004;2023-06-24T14:31:16;100737.38;;;22.83
63588;BMP280;49966;46.896;18.004;2023-06-24T14:33:45;100755.22;;;22.81
63588;BMP280;49966;46.896;18.004;2023-06-24T14:36:13;100752.69;;;22.74
63588;BMP280;49966;46.896;18.004;2023-06-24T14:38:41;100752.44;;;22.84
63588;BMP280;49966;46.896;18.004;2023-06-24T14:41:11;100738.09;;;22.67
63588;BMP280;49966;46.896;18.004;2023-06-24T14:43:39;100737.44;;;22.63
63588;BMP280;49966;46.896;18.004;2023-06-24T14:46:07;100736.25;;;22.64
63588;BMP280;49966;46.896;18.004;2023-06-24T14:48:37;100741.38;;;22.79
63588;BMP280;49966;46.896;18.004;2023-06-24T14:51:06;100740.25;;;22.76
63588;BMP280;49966;46.896;18.004;2023-06-24T14:53:37;100742.38;;;22.68
63588;BMP280;49966;46.896;18.004;2023-06-24T14:56:08;100735.81;;;23.02
63588;BMP280;49966;46.896;18.004;2023-06-24T14:58:37;100728.44;;;23.03
63588;BMP280;49966;46.896;18.004;2023-06-24T15:01:05;100728.47;;;22.86
63588;BMP280;49966;46.896;18.004;2023-06-24T15:03:33;100721.50;;;22.69
63588;BMP280;49966;46.896;18.004;2023-06-24T15:06:03;100718.78;;;22.69
63588;BMP280;49966;46.896;18.004;2023-06-24T15:08:31;100713.78;;;22.51
63588;BMP280;49966;46.896;18.004;2023-06-24T15:11:00;100706.28;;;22.59
63588;BMP280;49966;46.896;18.004;2023-06-24T15:13:28;100718.81;;;22.49
63588;BMP280;49966;46.896;18.004;2023-06-24T15:15:57;100721.16;;;22.67
63588;BMP280;49966;46.896;18.004;2023-06-24T15:18:25;100726.84;;;22.89
63588;BMP280;49966;46.896;18.004;2023-06-24T15:20:54;100720.06;;;23.13
63588;BMP280;49966;46.896;18.004;2023-06-24T15:23:24;100712.53;;;23.37
63588;BMP280;49966;46.896;18.004;2023-06-24T15:25:55;100711.75;;;23.53
63588;BMP280;49966;46.896;18.004;2023-06-24T15:28:25;100716.09;;;23.50
63588;BMP280;49966;46.896;18.004;2023-06-24T15:30:54;100710.88;;;23.72
63588;BMP280;49966;46.896;18.004;2023-06-24T15:33:25;100718.91;;;23.31
63588;BMP280;49966;46.896;18.004;2023-06-24T15:35:53;100709.94;;;23.17
63588;BMP280;49966;46.896;18.004;2023-06-24T15:38:22;100702.66;;;23.31
63588;BMP280;49966;46.896;18.004;2023-06-24T15:40:53;100697.00;;;23.25
63588;BMP280;49966;46.896;18.004;2023-06-24T15:43:21;100717.13;;;23.24
63588;BMP280;49966;46.896;18.004;2023-06-24T15:46:00;100707.38;;;23.43
63588;BMP280;49966;46.896;18.004;2023-06-24T15:48:31;100714.28;;;23.44
63588;BMP280;49966;46.896;18.004;2023-06-24T15:51:00;100704.34;;;23.24
63588;BMP280;49966;46.896;18.004;2023-06-24T15:53:28;100703.78;;;23.17
63588;BMP280;49966;46.896;18.004;2023-06-24T15:56:01;100706.13;;;22.98
63588;BMP280;49966;46.896;18.004;2023-06-24T15:58:29;100701.31;;;22.74
63588;BMP280;49966;46.896;18.004;2023-06-24T16:00:57;100693.25;;;22.54
63588;BMP280;49966;46.896;18.004;2023-06-24T16:03:50;100690.00;;;22.42
63588;BMP280;49966;46.896;18.004;2023-06-24T16:06:18;100697.91;;;22.33
63588;BMP280;49966;46.896;18.004;2023-06-24T16:08:47;100711.63;;;22.42
63588;BMP280;49966;46.896;18.004;2023-06-24T16:11:20;100712.56;;;22.36
63588;BMP280;49966;46.896;18.004;2023-06-24T16:13:51;100707.91;;;22.53
63588;BMP280;49966;46.896;18.004;2023-06-24T16:16:20;100713.69;;;22.55
63588;BMP280;49966;46.896;18.004;2023-06-24T16:18:51;100719.56;;;22.69
63588;BMP280;49966;46.896;18.004;2023-06-24T16:21:20;100699.88;;;22.69
63588;BMP280;49966;46.896;18.004;2023-06-24T16:23:48;100712.38;;;22.79
63588;BMP280;49966;46.896;18.004;2023-06-24T16:26:20;100699.78;;;22.72
63588;BMP280;49966;46.896;18.004;2023-06-24T16:28:48;100720.56;;;22.59
63588;BMP280;49966;46.896;18.004;2023-06-24T16:31:23;100721.66;;;22.62
63588;BMP280;49966;46.896;18.004;2023-06-24T16:33:52;100703.81;;;22.64
63588;BMP280;49966;46.896;18.004;2023-06-24T16:36:20;100705.44;;;22.62
63588;BMP280;49966;46.896;18.004;2023-06-24T16:38:51;100700.78;;;22.62
63588;BMP280;49966;46.896;18.004;2023-06-24T16:41:20;100718.47;;;22.99
63588;BMP280;49966;46.896;18.004;2023-06-24T16:43:49;100703.59;;;22.75
63588;BMP280;49966;46.896;18.004;2023-06-24T16:46:17;100710.19;;;22.74
63588;BMP280;49966;46.896;18.004;2023-06-24T16:48:45;100717.66;;;22.86
63588;BMP280;49966;46.896;18.004;2023-06-24T16:51:14;100712.75;;;22.97
63588;BMP280;49966;46.896;18.004;2023-06-24T16:53:48;100720.16;;;22.93
63588;BMP280;49966;46.896;18.004;2023-06-24T16:56:53;100723.66;;;22.94
63588;BMP280;49966;46.896;18.004;2023-06-24T16:59:40;100724.25;;;23.02
63588;BMP280;49966;46.896;18.004;2023-06-24T17:02:28;100723.34;;;22.72
63588;BMP280;49966;46.896;18.004;2023-06-24T17:04:59;100726.41;;;22.74
63588;BMP280;49966;46.896;18.004;2023-06-24T17:07:29;100713.00;;;22.51
63588;BMP280;49966;46.896;18.004;2023-06-24T17:09:57;100735.59;;;22.40
63588;BMP280;49966;46.896;18.004;2023-06-24T17:12:27;100721.19;;;22.47
63588;BMP280;49966;46.896;18.004;2023-06-24T17:14:55;100714.75;;;22.41
63588;BMP280;49966;46.896;18.004;2023-06-24T17:17:26;100718.75;;;22.33
63588;BMP280;49966;46.896;18.004;2023-06-24T17:19:54;100733.94;;;22.07
63588;BMP280;49966;46.896;18.004;2023-06-24T17:22:22;100723.75;;;21.95
63588;BMP280;49966;46.896;18.004;2023-06-24T17:24:51;100713.56;;;22.02
63588;BMP280;49966;46.896;18.004;2023-06-24T17:27:20;100717.19;;;21.96
63588;BMP280;49966;46.896;18.004;2023-06-24T17:29:54;100711.84;;;21.92
63588;BMP280;49966;46.896;18.004;2023-06-24T17:32:28;100718.81;;;21.93
63588;BMP280;49966;46.896;18.004;2023-06-24T17:34:59;100726.63;;;21.87
63588;BMP280;49966;46.896;18.004;2023-06-24T17:37:31;100719.53;;;21.94
63588;BMP280;49966;46.896;18.004;2023-06-24T17:40:02;100731.47;;;21.96
63588;BMP280;49966;46.896;18.004;2023-06-24T17:42:31;100735.81;;;22.10
63588;BMP280;49966;46.896;18.004;2023-06-24T17:45:01;100722.16;;;21.97
63588;BMP280;49966;46.896;18.004;2023-06-24T17:47:33;100731.47;;;21.96
63588;BMP280;49966;46.896;18.004;2023-06-24T17:50:02;100725.44;;;21.88
63588;BMP280;49966;46.896;18.004;2023-06-24T17:52:30;100720.78;;;21.89
63588;BMP280;49966;46.896;18.004;2023-06-24T17:55:00;100722.44;;;21.83
63588;BMP280;49966;46.896;18.004;2023-06-24T17:57:31;100716.75;;;21.77
63588;BMP280;49966;46.896;18.004;2023-06-24T18:00:01;100732.16;;;21.80
63588;BMP280;49966;46.896;18.004;2023-06-24T18:02:32;100735.78;;;21.70
63588;BMP280;49966;46.896;18.004;2023-06-24T18:05:03;100729.50;;;21.77
63588;BMP280;49966;46.896;18.004;2023-06-24T18:07:35;100725.31;;;21.72
63588;BMP280;49966;46.896;18.004;2023-06-24T18:10:04;100725.28;;;21.52
63588;BMP280;49966;46.896;18.004;2023-06-24T18:12:32;100726.75;;;21.57
63588;BMP280;49966;46.896;18.004;2023-06-24T18:15:05;100731.97;;;21.44
63588;BMP280;49966;46.896;18.004;2023-06-24T18:17:34;100733.78;;;21.51
63588;BMP280;49966;46.896;18.004;2023-06-24T18:20:02;100727.63;;;21.50
63588;BMP280;49966;46.896;18.004;2023-06-24T18:22:32;100726.25;;;21.39
63588;BMP280;49966;46.896;18.004;2023-06-24T18:25:01;100725.50;;;21.38
63588;BMP280;49966;46.896;18.004;2023-06-24T18:27:29;100723.56;;;21.39
63588;BMP280;49966;46.896;18.004;2023-06-24T18:29:58;100715.47;;;21.39
63588;BMP280;49966;46.896;18.004;2023-06-24T18:32:30;100719.34;;;21.38
63588;BMP280;49966;46.896;18.004;2023-06-24T18:35:10;100725.44;;;21.42
63588;BMP280;49966;46.896;18.004;2023-06-24T18:37:38;100719.25;;;21.45
63588;BMP280;49966;46.896;18.004;2023-06-24T18:40:07;100729.63;;;21.46
63588;BMP280;49966;46.896;18.004;2023-06-24T18:42:48;100720.22;;;21.31
63588;BMP280;49966;46.896;18.004;2023-06-24T18:45:19;100742.53;;;21.35
63588;BMP280;49966;46.896;18.004;2023-06-24T18:48:05;100728.78;;;21.26
63588;BMP280;49966;46.896;18.004;2023-06-24T18:50:33;100740.69;;;21.28
63588;BMP280;49966;46.896;18.004;2023-06-24T18:53:02;100735.31;;;21.28
63588;BMP280;49966;46.896;18.004;2023-06-24T18:55:33;100736.94;;;21.22
63588;BMP280;49966;46.896;18.004;2023-06-24T18:58:03;100755.38;;;21.27
63588;BMP280;49966;46.896;18.004;2023-06-24T19:00:32;100732.41;;;21.16
63588;BMP280;49966;46.896;18.004;2023-06-24T19:03:02;100765.50;;;21.20
63588;BMP280;49966;46.896;18.004;2023-06-24T19:05:35;100739.47;;;21.06
63588;BMP280;49966;46.896;18.004;2023-06-24T19:08:15;100755.16;;;21.15
63588;BMP280;49966;46.896;18.004;2023-06-24T19:10:51;100754.19;;;21.01
63588;BMP280;49966;46.896;18.004;2023-06-24T19:13:23;100766.59;;;20.95
63588;BMP280;49966;46.896;18.004;2023-06-24T19:15:51;100770.47;;;20.94
63588;BMP280;49966;46.896;18.004;2023-06-24T19:18:21;100752.84;;;20.86
63588;BMP280;49966;46.896;18.004;2023-06-24T19:20:53;100765.53;;;20.89
63588;BMP280;49966;46.896;18.004;2023-06-24T19:23:21;100766.22;;;20.93
63588;BMP280;49966;46.896;18.004;2023-06-24T19:25:49;100752.44;;;20.88
63588;BMP280;49966;46.896;18.004;2023-06-24T19:28:18;100753.66;;;20.83
63588;BMP280;49966;46.896;18.004;2023-06-24T19:30:55;100748.25;;;20.83
63588;BMP280;49966;46.896;18.004;2023-06-24T19:33:28;100745.16;;;20.85
63588;BMP280;49966;46.896;18.004;2023-06-24T19:35:56;100760.31;;;20.75
63588;BMP280;49966;46.896;18.004;2023-06-24T19:38:25;100762.25;;;20.71
63588;BMP280;49966;46.896;18.004;2023-06-24T19:40:53;100761.94;;;20.69
63588;BMP280;49966;46.896;18.004;2023-06-24T19:43:21;100772.00;;;20.65
63588;BMP280;49966;46.896;18.004;2023-06-24T19:45:51;100780.47;;;20.63
63588;BMP280;49966;46.896;18.004;2023-06-24T19:48:19;100777.44;;;20.61
63588;BMP280;49966;46.896;18.004;2023-06-24T19:50:50;100776.00;;;20.49
63588;BMP280;49966;46.896;18.004;2023-06-24T19:53:21;100774.03;;;20.53
63588;BMP280;49966;46.896;18.004;2023-06-24T19:55:50;100780.56;;;20.56
63588;BMP280;49966;46.896;18.004;2023-06-24T19:58:18;100772.56;;;20.45
63588;BMP280;49966;46.896;18.004;2023-06-24T20:00:46;100767.25;;;20.42
63588;BMP280;49966;46.896;18.004;2023-06-24T20:03:14;100776.47;;;20.44
63588;BMP280;49966;46.896;18.004;2023-06-24T20:05:43;100760.31;;;20.44
63588;BMP280;49966;46.896;18.004;2023-06-24T20:08:13;100764.97;;;20.40
63588;BMP280;49966;46.896;18.004;2023-06-24T20:10:44;100764.16;;;20.43
63588;BMP280;49966;46.896;18.004;2023-06-24T20:13:12;100770.38;;;20.37
63588;BMP280;49966;46.896;18.004;2023-06-24T20:15:41;100764.19;;;20.40
63588;BMP280;49966;46.896;18.004;2023-06-24T20:18:13;100762.69;;;20.35
63588;BMP280;49966;46.896;18.004;2023-06-24T20:21:23;100748.13;;;20.29
63588;BMP280;49966;46.896;18.004;2023-06-24T20:24:35;100756.59;;;20.31
63588;BMP280;49966;46.896;18.004;2023-06-24T20:27:11;100743.50;;;20.30
63588;BMP280;49966;46.896;18.004;2023-06-24T20:30:03;100723.97;;;20.22
63588;BMP280;49966;46.896;18.004;2023-06-24T20:32:37;100727.44;;;20.22
63588;BMP280;49966;46.896;18.004;2023-06-24T20:35:34;100732.41;;;20.24
63588;BMP280;49966;46.896;18.004;2023-06-24T20:38:04;100735.94;;;20.21
63588;BMP280;49966;46.896;18.004;2023-06-24T20:40:49;100714.47;;;20.14
63588;BMP280;49966;46.896;18.004;2023-06-24T20:43:21;100716.41;;;20.13
63588;BMP280;49966;46.896;18.004;2023-06-24T20:45:50;100723.28;;;20.18
63588;BMP280;49966;46.896;18.004;2023-06-24T20:48:23;100715.97;;;20.15
63588;BMP280;49966;46.896;18.004;2023-06-24T20:51:28;100732.91;;;20.15
63588;BMP280;49966;46.896;18.004;2023-06-24T20:54:51;100711.44;;;20.08
63588;BMP280;49966;46.896;18.004;2023-06-24T20:57:27;100727.16;;;20.13
63588;BMP280;49966;46.896;18.004;2023-06-24T21:00:48;100726.41;;;20.13
63588;BMP280;49966;46.896;18.004;2023-06-24T21:03:16;100721.09;;;20.06
63588;BMP280;49966;46.896;18.004;2023-06-24T21:05:48;100729.56;;;20.04
63588;BMP280;49966;46.896;18.004;2023-06-24T21:15:42;100709.59;;;20.02
63588;BMP280;49966;46.896;18.004;2023-06-24T21:18:43;100703.44;;;20.01
63588;BMP280;49966;46.896;18.004;2023-06-24T21:21:31;100694.97;;;19.99
63588;BMP280;49966;46.896;18.004;2023-06-24T21:25:15;100697.31;;;19.97
63588;BMP280;49966;46.896;18.004;2023-06-24T21:28:20;100709.59;;;20.02
63588;BMP280;49966;46.896;18.004;2023-06-24T21:35:12;100708.88;;;19.94
63588;BMP280;49966;46.896;18.004;2023-06-24T21:37:42;100693.91;;;19.93
63588;BMP280;49966;46.896;18.004;2023-06-24T21:40:13;100689.69;;;19.92
63588;BMP280;49966;46.896;18.004;2023-06-24T21:44:35;100699.63;;;19.95
63588;BMP280;49966;46.896;18.004;2023-06-24T21:47:33;100697.34;;;19.93
63588;BMP280;49966;46.896;18.004;2023-06-24T21:58:02;100690.09;;;19.87
63588;BMP280;49966;46.896;18.004;2023-06-24T22:00:40;100677.81;;;19.86
63588;BMP280;49966;46.896;18.004;2023-06-24T22:03:09;100674.38;;;19.85
63588;BMP280;49966;46.896;18.004;2023-06-24T22:05:40;100686.66;;;19.86
63588;BMP280;49966;46.896;18.004;2023-06-24T22:08:09;100685.16;;;19.82
63588;BMP280;49966;46.896;18.004;2023-06-24T22:10:46;100691.66;;;19.88
63588;BMP280;49966;46.896;18.004;2023-06-24T22:13:21;100684.78;;;19.83
63588;BMP280;49966;46.896;18.004;2023-06-24T22:15:56;100680.19;;;19.80
63588;BMP280;49966;46.896;18.004;2023-06-24T22:18:34;100682.09;;;19.80
63588;BMP280;49966;46.896;18.004;2023-06-24T22:21:22;100672.09;;;19.80
63588;BMP280;49966;46.896;18.004;2023-06-24T22:23:51;100664.81;;;19.77
63588;BMP280;49966;46.896;18.004;2023-06-24T22:26:53;100669.47;;;19.73
63588;BMP280;49966;46.896;18.004;2023-06-24T22:29:23;100670.56;;;19.79
63588;BMP280;49966;46.896;18.004;2023-06-24T22:31:55;100656.03;;;19.73
63588;BMP280;49966;46.896;18.004;2023-06-24T22:34:41;100651.47;;;19.70
63588;BMP280;49966;46.896;18.004;2023-06-24T22:37:11;100658.78;;;19.66